createdAt,value
2023-03-15T00:04:38.977Z,0.24
2023-03-15T00:10:04.640Z,0.23
2023-03-15T00:15:32.127Z,0.20
2023-03-15T00:20:38.524Z,0.18
2023-03-15T00:25:45.530Z,0.16
2023-03-15T00:30:50.808Z,0.16
2023-03-15T00:35:56.383Z,0.14
2023-03-15T00:41:06.510Z,0.14
2023-03-15T00:46:13.230Z,0.13
2023-03-15T00:51:21.494Z,0.08
2023-03-15T00:56:30.171Z,0.06
2023-03-15T01:01:35.641Z,0.05
2023-03-15T01:06:42.488Z,0.04
2023-03-15T01:11:47.842Z,0.01
2023-03-15T01:16:53.349Z,-0.03
2023-03-15T01:21:58.683Z,-0.03
2023-03-15T01:27:04.234Z,-0.03
2023-03-15T01:32:10.187Z,-0.04
2023-03-15T01:37:15.881Z,-0.07
2023-03-15T01:42:21.243Z,-0.08
2023-03-15T01:47:27.647Z,-0.13
2023-03-15T01:52:37.229Z,-0.16
2023-03-15T01:57:46.199Z,-0.20
2023-03-15T02:02:55.792Z,-0.22
2023-03-15T02:08:01.852Z,-0.24
2023-03-15T02:13:08.656Z,-0.26
2023-03-15T02:18:14.038Z,-0.28
2023-03-15T02:23:24.194Z,-0.31
2023-03-15T02:28:29.987Z,-0.34
2023-03-15T02:33:41.981Z,-0.37
2023-03-15T02:38:48.180Z,-0.43
2023-03-15T02:43:56.958Z,-0.45
2023-03-15T02:49:02.952Z,-0.46
2023-03-15T02:54:08.461Z,-0.48
2023-03-15T02:59:13.751Z,-0.51
2023-03-15T03:04:19.200Z,-0.55
2023-03-15T03:09:24.897Z,-0.58
2023-03-15T03:14:31.333Z,-0.60
2023-03-15T03:19:36.674Z,-0.61
2023-03-15T03:24:45.970Z,-0.62
2023-03-15T03:29:51.827Z,-0.64
2023-03-15T03:34:57.309Z,-0.65
2023-03-15T03:40:07.772Z,-0.67
2023-03-15T03:45:13.442Z,-0.68
2023-03-15T03:50:18.943Z,-0.69
2023-03-15T03:55:25.461Z,-0.72
2023-03-15T04:00:30.788Z,-0.73
2023-03-15T04:05:36.674Z,-0.77
2023-03-15T04:10:42.099Z,-0.80
2023-03-15T04:15:48.128Z,-0.81
2023-03-15T04:20:54.905Z,-0.84
2023-03-15T04:26:00.356Z,-0.87
2023-03-15T04:31:10.766Z,-0.94
2023-03-15T04:36:19.058Z,-1.02
2023-03-15T04:41:27.040Z,-1.04
2023-03-15T04:46:33.045Z,-1.04
2023-03-15T04:51:38.491Z,-1.04
2023-03-15T04:56:43.930Z,-1.04
2023-03-15T05:01:49.462Z,-1.06
2023-03-15T05:06:54.974Z,-1.08
2023-03-15T05:12:00.355Z,-1.10
2023-03-15T05:17:05.697Z,-1.11
2023-03-15T05:22:11.361Z,-1.11
2023-03-15T05:27:16.627Z,-1.10
2023-03-15T05:32:26.867Z,-1.06
2023-03-15T05:37:32.850Z,-1.02
2023-03-15T05:42:38.222Z,-0.96
2023-03-15T05:47:44.001Z,-0.86
2023-03-15T05:52:52.028Z,-0.74
2023-03-15T05:57:57.322Z,-0.62
2023-03-15T06:03:02.783Z,-0.51
2023-03-15T06:08:08.141Z,-0.42
2023-03-15T06:13:13.649Z,-0.37
2023-03-15T06:18:18.939Z,-0.30
2023-03-15T06:23:24.283Z,-0.04
2023-03-15T06:28:29.584Z,0.56
2023-03-15T06:33:34.940Z,0.59
2023-03-15T06:38:41.779Z,0.56
2023-03-15T06:43:47.126Z,0.53
2023-03-15T06:48:52.401Z,0.51
2023-03-15T06:53:57.736Z,0.50
2023-03-15T06:59:03.158Z,0.47
2023-03-15T07:04:09.709Z,0.48
2023-03-15T07:09:15.143Z,0.52
2023-03-15T07:14:21.235Z,0.60
2023-03-15T07:19:26.657Z,0.64
2023-03-15T07:24:32.439Z,0.73
2023-03-15T07:29:37.930Z,0.79
2023-03-15T07:34:43.554Z,0.85
2023-03-15T07:39:48.921Z,0.88
2023-03-15T07:44:54.346Z,0.91
2023-03-15T07:50:00.205Z,0.92
2023-03-15T07:55:08.736Z,0.95
2023-03-15T08:00:16.565Z,0.99
2023-03-15T08:05:22.147Z,1.02
2023-03-15T08:10:28.015Z,1.08
2023-03-15T08:15:33.547Z,1.17
2023-03-15T08:20:38.865Z,1.23
2023-03-15T08:25:44.802Z,1.33
2023-03-15T08:30:50.443Z,1.41
2023-03-15T08:35:56.434Z,1.52
2023-03-15T08:41:01.944Z,1.54
2023-03-15T08:46:07.564Z,1.50
2023-03-15T08:51:13.558Z,1.50
2023-03-15T08:56:19.042Z,1.56
2023-03-15T09:01:24.396Z,1.60
2023-03-15T09:06:29.802Z,1.66
2023-03-15T09:11:35.079Z,1.71
2023-03-15T09:16:40.487Z,1.78
2023-03-15T09:21:47.232Z,1.89
2023-03-15T09:26:52.946Z,2.03
2023-03-15T09:31:58.321Z,2.11
2023-03-15T09:37:03.970Z,2.23
2023-03-15T09:42:16.270Z,2.34
2023-03-15T09:47:35.560Z,2.47
2023-03-15T09:52:46.590Z,2.73
2023-03-15T09:57:57.232Z,2.76
2023-03-15T10:03:09.870Z,2.84
2023-03-15T10:08:17.647Z,2.95
2023-03-15T10:13:45.733Z,3.23
2023-03-15T10:19:02.638Z,3.48
2023-03-15T10:24:16.127Z,3.70
2023-03-15T10:29:24.803Z,3.82
2023-03-15T10:34:30.782Z,4.05
2023-03-15T10:39:36.096Z,4.38
2023-03-15T10:44:41.334Z,4.35
2023-03-15T10:49:46.859Z,4.32
2023-03-15T10:54:58.812Z,4.22
2023-03-15T11:00:26.915Z,4.17
2023-03-15T11:05:39.000Z,4.49
2023-03-15T11:10:45.891Z,4.90
2023-03-15T11:16:04.551Z,4.91
2023-03-15T11:21:14.842Z,4.92
2023-03-15T11:26:32.374Z,4.94
2023-03-15T11:31:38.929Z,5.12
2023-03-15T11:36:49.061Z,5.12
2023-03-15T11:42:04.999Z,5.60
2023-03-15T11:47:16.821Z,6.05
2023-03-15T11:52:24.948Z,5.92
2023-03-15T11:57:45.510Z,5.62
2023-03-15T12:02:54.108Z,5.84
2023-03-15T12:08:15.633Z,6.20
2023-03-15T12:13:25.498Z,6.36
2023-03-15T12:18:38.916Z,6.36
2023-03-15T12:23:58.082Z,6.28
2023-03-15T12:29:18.418Z,6.34
2023-03-15T12:34:43.748Z,6.13
2023-03-15T12:39:51.577Z,5.97
2023-03-15T12:45:37.595Z,6.04
2023-03-15T12:50:52.837Z,6.67
2023-03-15T12:56:11.478Z,7.14
2023-03-15T13:01:18.650Z,7.47
2023-03-15T13:06:37.509Z,7.73
2023-03-15T13:11:51.360Z,7.79
2023-03-15T13:17:05.818Z,7.68
2023-03-15T13:22:22.225Z,7.63
2023-03-15T13:27:45.333Z,7.32
2023-03-15T13:33:01.354Z,7.10
2023-03-15T13:38:22.199Z,6.86
2023-03-15T13:43:30.093Z,6.39
2023-03-15T13:48:37.200Z,5.62
2023-03-15T13:53:49.855Z,4.98
2023-03-15T13:58:56.806Z,5.17
2023-03-15T14:04:06.346Z,5.38
2023-03-15T14:09:18.099Z,5.50
2023-03-15T14:14:28.069Z,5.69
2023-03-15T14:19:34.931Z,5.86
2023-03-15T14:24:42.273Z,6.00
2023-03-15T14:29:50.304Z,6.10
2023-03-15T14:35:02.685Z,6.18
2023-03-15T14:40:16.044Z,6.31
2023-03-15T14:45:23.070Z,6.30
2023-03-15T14:50:33.518Z,6.27
2023-03-15T14:55:39.244Z,6.20
2023-03-15T15:00:46.991Z,6.21
2023-03-15T15:05:52.437Z,6.27
2023-03-15T15:10:58.613Z,6.33
2023-03-15T15:16:04.912Z,6.28
2023-03-15T15:21:18.837Z,6.24
2023-03-15T15:26:27.136Z,6.06
2023-03-15T15:31:35.602Z,5.91
2023-03-15T15:36:42.396Z,5.83
2023-03-15T15:41:47.999Z,5.66
2023-03-15T15:46:53.724Z,5.51
2023-03-15T15:51:59.114Z,5.42
2023-03-15T15:57:04.927Z,5.28
2023-03-15T16:02:17.508Z,5.14
2023-03-15T16:07:23.926Z,5.06
2023-03-15T16:12:29.688Z,4.85
2023-03-15T16:17:35.357Z,4.46
2023-03-15T16:22:43.805Z,3.89
2023-03-15T16:27:49.140Z,3.40
2023-03-15T16:32:55.338Z,2.93
2023-03-15T16:38:01.736Z,2.70
2023-03-15T16:43:08.749Z,2.56
2023-03-15T16:48:14.832Z,2.52
2023-03-15T16:53:20.609Z,2.55
2023-03-15T16:58:26.661Z,2.55
2023-03-15T17:03:32.995Z,2.50
2023-03-15T17:08:38.631Z,2.39
2023-03-15T17:13:44.063Z,2.27
2023-03-15T17:18:49.604Z,2.19
2023-03-15T17:23:55.120Z,2.17
2023-03-15T17:29:01.123Z,2.12
2023-03-15T17:34:06.545Z,2.03
2023-03-15T17:39:17.129Z,1.94
2023-03-15T17:44:23.399Z,1.85
2023-03-15T17:49:28.679Z,1.85
2023-03-15T17:54:34.814Z,1.77
2023-03-15T17:59:40.264Z,1.68
2023-03-15T18:04:46.272Z,1.56
2023-03-15T18:09:51.597Z,1.49
2023-03-15T18:14:59.563Z,1.42
2023-03-15T18:20:08.820Z,1.35
2023-03-15T18:25:19.517Z,1.28
2023-03-15T18:30:26.872Z,1.22
2023-03-15T18:35:35.016Z,1.18
2023-03-15T18:40:40.488Z,1.12
2023-03-15T18:45:45.821Z,1.09
2023-03-15T18:50:52.286Z,1.06
2023-03-15T18:55:57.740Z,1.02
2023-03-15T19:01:03.140Z,0.95
2023-03-15T19:06:11.790Z,0.92
2023-03-15T19:11:17.808Z,0.88
2023-03-15T19:16:23.924Z,0.82
2023-03-15T19:21:29.478Z,0.76
2023-03-15T19:26:34.973Z,0.69
2023-03-15T19:31:40.338Z,0.63
2023-03-15T19:36:45.741Z,0.58
2023-03-15T19:41:51.038Z,0.52
2023-03-15T19:46:56.461Z,0.47
2023-03-15T19:52:01.722Z,0.47
2023-03-15T19:57:07.180Z,0.45
2023-03-15T20:02:13.705Z,0.42
2023-03-15T20:07:20.157Z,0.40
2023-03-15T20:12:25.523Z,0.38
2023-03-15T20:17:30.933Z,0.35
2023-03-15T20:22:36.490Z,0.31
2023-03-15T20:27:42.700Z,0.25
2023-03-15T20:32:48.076Z,0.16
2023-03-15T20:37:53.657Z,0.07
2023-03-15T20:42:58.946Z,0.02
2023-03-15T20:48:04.976Z,-0.04
2023-03-15T20:53:10.361Z,-0.08
2023-03-15T20:58:15.688Z,-0.14
2023-03-15T21:03:23.065Z,-0.16
2023-03-15T21:08:28.775Z,-0.21
2023-03-15T21:13:34.541Z,-0.23
2023-03-15T21:18:40.030Z,-0.25
2023-03-15T21:23:45.589Z,-0.27
2023-03-15T21:28:51.263Z,-0.33
2023-03-15T21:33:56.749Z,-0.36
2023-03-15T21:39:02.100Z,-0.37
2023-03-15T21:44:08.407Z,-0.41
2023-03-15T21:49:13.823Z,-0.47
2023-03-15T21:54:19.292Z,-0.51
2023-03-15T21:59:27.982Z,-0.58
2023-03-15T22:04:34.100Z,-0.65
2023-03-15T22:09:41.282Z,-0.69
2023-03-15T22:14:51.616Z,-0.72
2023-03-15T22:19:59.614Z,-0.78
2023-03-15T22:25:05.481Z,-0.85
2023-03-15T22:30:14.609Z,-0.85
2023-03-15T22:35:20.437Z,-0.85
2023-03-15T22:40:27.957Z,-0.87
2023-03-15T22:45:33.615Z,-0.91
2023-03-15T22:50:38.990Z,-0.92
2023-03-15T22:55:45.195Z,-0.96
2023-03-15T23:00:51.137Z,-1.01
2023-03-15T23:05:57.634Z,-1.03
2023-03-15T23:11:03.889Z,-1.07
2023-03-15T23:16:09.979Z,-1.16
2023-03-15T23:21:15.937Z,-1.17
2023-03-15T23:26:25.242Z,-1.17
2023-03-15T23:31:30.662Z,-1.19
2023-03-15T23:36:36.310Z,-1.22
2023-03-15T23:41:41.638Z,-1.24
2023-03-15T23:46:46.929Z,-1.25
2023-03-15T23:51:54.387Z,-1.28
2023-03-15T23:57:00.159Z,-1.32
